createdAt,value
2019-02-21T00:01:40.736Z,98768.00
2019-02-21T00:06:01.605Z,98773.00
2019-02-21T00:10:16.093Z,98775.00
2019-02-21T00:14:29.922Z,98772.00
2019-02-21T00:18:44.577Z,98771.00
2019-02-21T00:22:59.380Z,98775.00
2019-02-21T00:27:13.936Z,98774.00
2019-02-21T00:31:15.130Z,98777.00
2019-02-21T00:35:35.880Z,98778.00
2019-02-21T00:39:56.625Z,98779.00
2019-02-21T00:44:17.351Z,98783.00
2019-02-21T00:48:38.229Z,98772.00
2019-02-21T00:52:58.961Z,98777.00
2019-02-21T00:57:19.830Z,98776.00
2019-02-21T01:01:40.585Z,98778.00
2019-02-21T01:06:01.312Z,98775.00
2019-02-21T01:10:16.087Z,98771.00
2019-02-21T01:14:16.955Z,98776.00
2019-02-21T01:18:17.910Z,98786.00
2019-02-21T01:22:31.712Z,98784.00
2019-02-21T01:26:46.486Z,98794.00
2019-02-21T01:31:01.121Z,98788.00
2019-02-21T01:35:15.169Z,98786.00
2019-02-21T01:39:29.663Z,98788.00
2019-02-21T01:43:30.559Z,98797.00
2019-02-21T01:47:51.294Z,98794.00
2019-02-21T01:51:52.138Z,98796.00
2019-02-21T01:55:53.029Z,98797.00
2019-02-21T02:00:14.067Z,98784.00
2019-02-21T02:04:34.796Z,98793.00
2019-02-21T02:08:48.544Z,98791.00
2019-02-21T02:12:49.500Z,98805.00
2019-02-21T02:17:10.233Z,98793.00
2019-02-21T02:21:24.249Z,98795.00
2019-02-21T02:25:38.766Z,98786.00
2019-02-21T02:29:39.749Z,98793.00
2019-02-21T02:34:00.530Z,98797.00
2019-02-21T02:38:21.238Z,98798.00
2019-02-21T02:42:42.158Z,98782.00
2019-02-21T02:47:03.011Z,98795.00
2019-02-21T02:51:23.849Z,98793.00
2019-02-21T02:55:44.583Z,98785.00
2019-02-21T03:00:27.135Z,98791.00
2019-02-21T03:04:47.995Z,98799.00
2019-02-21T03:13:37.551Z,98798.00
2019-02-21T03:17:52.107Z,98799.00
2019-02-21T03:22:06.790Z,98806.00
2019-02-21T03:26:21.375Z,98802.00
2019-02-21T03:30:36.060Z,98796.00
2019-02-21T03:34:50.441Z,98811.00
2019-02-21T03:39:05.141Z,98805.00
2019-02-21T03:43:19.630Z,98806.00
2019-02-21T03:47:34.336Z,98812.00
2019-02-21T03:51:48.726Z,98803.00
2019-02-21T04:00:38.555Z,98811.00
2019-02-21T04:04:59.399Z,98811.00
2019-02-21T04:09:20.245Z,98806.00
2019-02-21T04:13:40.966Z,98807.00
2019-02-21T04:18:01.756Z,98808.00
2019-02-21T04:22:16.357Z,98806.00
2019-02-21T04:26:31.157Z,98807.00
2019-02-21T04:30:44.904Z,98816.00
2019-02-21T04:34:59.424Z,98813.00
2019-02-21T04:39:16.773Z,98807.00
2019-02-21T04:43:33.203Z,98811.00
2019-02-21T04:47:49.415Z,98799.00
2019-02-21T04:51:50.530Z,98803.00
2019-02-21T04:56:11.483Z,98805.00
2019-02-21T05:00:32.333Z,98808.00
2019-02-21T05:04:53.162Z,98799.00
2019-02-21T05:09:13.914Z,98803.00
2019-02-21T05:13:34.736Z,98797.00
2019-02-21T05:17:55.648Z,98804.00
2019-02-21T05:22:10.220Z,98798.00
2019-02-21T05:30:39.937Z,98797.00
2019-02-21T05:35:21.802Z,98812.00
2019-02-21T05:40:03.558Z,98803.00
2019-02-21T05:49:26.700Z,98802.00
2019-02-21T05:54:07.402Z,98799.00
2019-02-21T05:58:47.990Z,98809.00
2019-02-21T06:03:28.603Z,98803.00
2019-02-21T06:08:09.229Z,98801.00
2019-02-21T06:12:49.867Z,98811.00
2019-02-21T06:17:24.004Z,98804.00
2019-02-21T06:21:43.604Z,98814.00
2019-02-21T06:26:02.472Z,98818.00
2019-02-21T06:30:21.034Z,98814.00
2019-02-21T06:34:35.266Z,98819.00
2019-02-21T06:38:49.325Z,98819.00
2019-02-21T06:43:03.899Z,98825.00
2019-02-21T06:47:18.544Z,98832.00
2019-02-21T06:51:33.228Z,98830.00
2019-02-21T06:55:48.009Z,98834.00
2019-02-21T07:00:02.049Z,98838.00
2019-02-21T07:04:16.524Z,98828.00
2019-02-21T07:08:30.995Z,98844.00
2019-02-21T07:12:45.544Z,98847.00
2019-02-21T07:16:59.904Z,98854.00
2019-02-21T07:21:14.439Z,98847.00
2019-02-21T07:25:34.029Z,98855.00
2019-02-21T07:29:48.591Z,98855.00
2019-02-21T07:34:03.354Z,98854.00
2019-02-21T07:38:17.698Z,98863.00
2019-02-21T07:42:32.211Z,98857.00
2019-02-21T07:46:46.742Z,98870.00
2019-02-21T07:51:01.291Z,98884.00
2019-02-21T07:55:15.809Z,98893.00
2019-02-21T07:59:30.322Z,98896.00
2019-02-21T08:03:48.128Z,98904.00
2019-02-21T08:08:01.477Z,98905.00
2019-02-21T08:12:15.362Z,98920.00
2019-02-21T08:16:29.842Z,98925.00
2019-02-21T08:20:44.253Z,98924.00
2019-02-21T08:24:45.293Z,98925.00
2019-02-21T08:28:46.181Z,98929.00
2019-02-21T08:33:26.896Z,98930.00
2019-02-21T08:37:47.757Z,98924.00
2019-02-21T08:42:08.552Z,98934.00
2019-02-21T08:46:29.351Z,98944.00
2019-02-21T08:50:50.084Z,98935.00
2019-02-21T08:55:10.816Z,98935.00
2019-02-21T08:59:31.668Z,98932.00
2019-02-21T09:03:52.492Z,98933.00
2019-02-21T09:08:13.348Z,98941.00
2019-02-21T09:12:28.014Z,98942.00
2019-02-21T09:16:42.293Z,98944.00
2019-02-21T09:20:56.883Z,98946.00
2019-02-21T09:25:11.609Z,98951.00
2019-02-21T09:29:25.975Z,98947.00
2019-02-21T09:33:40.675Z,98953.00
2019-02-21T09:37:54.647Z,98940.00
2019-02-21T09:41:55.812Z,98952.00
2019-02-21T09:46:16.547Z,98950.00
2019-02-21T09:50:37.283Z,98968.00
2019-02-21T09:54:58.147Z,98969.00
2019-02-21T09:59:18.895Z,98964.00
2019-02-21T10:03:39.725Z,98968.00
2019-02-21T10:08:00.647Z,98971.00
2019-02-21T10:12:21.396Z,98963.00
2019-02-21T10:16:42.178Z,98971.00
2019-02-21T10:20:43.041Z,98963.00
2019-02-21T10:25:25.547Z,98978.00
2019-02-21T10:29:46.380Z,98980.00
2019-02-21T10:34:07.111Z,98986.00
2019-02-21T10:38:27.960Z,98989.00
2019-02-21T10:42:48.916Z,98980.00
2019-02-21T10:47:09.676Z,98983.00
2019-02-21T10:51:30.554Z,98984.00
2019-02-21T10:55:51.317Z,98992.00
2019-02-21T11:00:33.835Z,98985.00
2019-02-21T11:04:55.236Z,98980.00
2019-02-21T11:08:56.258Z,98987.00
2019-02-21T11:13:17.071Z,98981.00
2019-02-21T11:17:37.865Z,98975.00
2019-02-21T11:21:52.480Z,98975.00
2019-02-21T11:26:06.923Z,98963.00
2019-02-21T11:30:21.469Z,98969.00
2019-02-21T11:34:38.073Z,98963.00
2019-02-21T11:38:52.560Z,98968.00
2019-02-21T11:43:06.975Z,98973.00
2019-02-21T11:47:21.770Z,98966.00
2019-02-21T11:51:35.548Z,98964.00
2019-02-21T11:55:49.998Z,98963.00
2019-02-21T12:00:04.429Z,98955.00
2019-02-21T12:04:18.771Z,98937.00
2019-02-21T12:08:33.504Z,98913.00
2019-02-21T12:12:47.321Z,98906.00
2019-02-21T12:17:01.678Z,98888.00
2019-02-21T12:21:16.109Z,98895.00
2019-02-21T12:25:30.664Z,98917.00
2019-02-21T12:29:45.245Z,98928.00
2019-02-21T12:33:59.788Z,98924.00
2019-02-21T12:38:14.231Z,98919.00
2019-02-21T12:42:29.011Z,98918.00
2019-02-21T12:46:45.596Z,98927.00
2019-02-21T12:50:59.753Z,98927.00
2019-02-21T12:55:26.454Z,98926.00
2019-02-21T12:59:31.025Z,98932.00
2019-02-21T13:03:45.811Z,98928.00
2019-02-21T13:08:00.449Z,98933.00
2019-02-21T13:12:15.081Z,98923.00
2019-02-21T13:16:29.690Z,98919.00
2019-02-21T13:20:44.156Z,98921.00
2019-02-21T13:24:45.163Z,98923.00
2019-02-21T13:28:46.320Z,98920.00
2019-02-21T13:32:47.951Z,98922.00
2019-02-21T13:37:08.830Z,98907.00
2019-02-21T13:41:09.899Z,98923.00
2019-02-21T13:45:30.651Z,98914.00
2019-02-21T13:49:51.541Z,98910.00
2019-02-21T13:54:12.406Z,98899.00
2019-02-21T13:58:33.247Z,98892.00
2019-02-21T14:02:54.381Z,98888.00
2019-02-21T14:07:15.131Z,98883.00
2019-02-21T14:11:35.951Z,98889.00
2019-02-21T14:15:56.720Z,98886.00
2019-02-21T14:20:17.603Z,98889.00
2019-02-21T14:24:36.879Z,98898.00
2019-02-21T14:28:47.444Z,98901.00
2019-02-21T14:33:03.167Z,98885.00
2019-02-21T14:37:17.767Z,98896.00
2019-02-21T14:41:32.426Z,98894.00
2019-02-21T14:45:47.044Z,98885.00
2019-02-21T14:49:49.025Z,98883.00
2019-02-21T14:54:09.990Z,98875.00
2019-02-21T14:58:30.917Z,98895.00
2019-02-21T15:02:51.856Z,98879.00
2019-02-21T15:07:12.675Z,98898.00
2019-02-21T15:11:33.573Z,98896.00
2019-02-21T15:15:54.578Z,98912.00
2019-02-21T15:20:10.209Z,98898.00
2019-02-21T15:24:24.535Z,98914.00
2019-02-21T15:28:38.516Z,98904.00
2019-02-21T15:32:53.454Z,98908.00
2019-02-21T15:37:07.735Z,98909.00
2019-02-21T15:41:23.443Z,98901.00
2019-02-21T15:45:37.924Z,98918.00
2019-02-21T15:49:52.434Z,98917.00
2019-02-21T15:53:53.327Z,98912.00
2019-02-21T15:58:14.218Z,98917.00
2019-02-21T16:02:34.981Z,98917.00
2019-02-21T16:06:55.851Z,98922.00
2019-02-21T16:11:16.613Z,98919.00
2019-02-21T16:15:37.532Z,98923.00
2019-02-21T16:19:58.487Z,98917.00
2019-02-21T16:24:13.115Z,98916.00
2019-02-21T16:28:27.752Z,98936.00
2019-02-21T16:32:42.147Z,98940.00
2019-02-21T16:37:02.399Z,98932.00
2019-02-21T16:41:12.548Z,98949.00
2019-02-21T16:45:55.218Z,98940.00
2019-02-21T16:50:16.037Z,98941.00
2019-02-21T16:54:36.812Z,98947.00
2019-02-21T16:58:57.678Z,98950.00
2019-02-21T17:03:18.533Z,98961.00
2019-02-21T17:07:39.382Z,98968.00
2019-02-21T17:12:00.135Z,98976.00
2019-02-21T17:16:20.888Z,98978.00
2019-02-21T17:20:41.683Z,98985.00
2019-02-21T17:25:03.135Z,98987.00
2019-02-21T17:29:24.028Z,98985.00
2019-02-21T17:33:24.958Z,98993.00
2019-02-21T17:37:25.956Z,98992.00
2019-02-21T17:41:46.716Z,98985.00
2019-02-21T17:45:47.627Z,98993.00
2019-02-21T17:50:30.156Z,99000.00
2019-02-21T17:54:31.219Z,99010.00
2019-02-21T17:58:52.060Z,98995.00
2019-02-21T18:03:12.862Z,98999.00
2019-02-21T18:07:13.833Z,99003.00
2019-02-21T18:11:28.117Z,99007.00
2019-02-21T18:15:28.982Z,99010.00
2019-02-21T18:19:43.186Z,99010.00
2019-02-21T18:23:44.288Z,99011.00
2019-02-21T18:28:05.478Z,99009.00
2019-02-21T18:32:26.311Z,99005.00
2019-02-21T18:36:47.083Z,99007.00
2019-02-21T18:40:48.112Z,99008.00
2019-02-21T18:45:09.062Z,99017.00
2019-02-21T18:49:29.803Z,99021.00
2019-02-21T18:53:50.662Z,99021.00
2019-02-21T18:58:11.526Z,99023.00
2019-02-21T19:02:32.487Z,99025.00
2019-02-21T19:06:53.337Z,99026.00
2019-02-21T19:10:54.457Z,99023.00
2019-02-21T19:15:37.026Z,99018.00
2019-02-21T19:19:57.951Z,99023.00
2019-02-21T19:24:12.503Z,99026.00
2019-02-21T19:28:26.962Z,99024.00
2019-02-21T19:32:41.558Z,99031.00
2019-02-21T19:36:56.406Z,99029.00
2019-02-21T19:41:11.103Z,99040.00
2019-02-21T19:45:12.180Z,99032.00
2019-02-21T19:49:33.298Z,99039.00
2019-02-21T19:53:34.256Z,99048.00
2019-02-21T19:57:55.029Z,99057.00
2019-02-21T20:02:15.766Z,99059.00
2019-02-21T20:06:36.736Z,99065.00
2019-02-21T20:10:57.719Z,99071.00
2019-02-21T20:15:18.713Z,99074.00
2019-02-21T20:19:39.667Z,99076.00
2019-02-21T20:23:40.683Z,99078.00
2019-02-21T20:27:41.754Z,99073.00
2019-02-21T20:31:42.642Z,99081.00
2019-02-21T20:36:03.528Z,99090.00
2019-02-21T20:40:24.273Z,99084.00
2019-02-21T20:44:45.170Z,99095.00
2019-02-21T20:49:06.191Z,99096.00
2019-02-21T20:53:27.205Z,99094.00
2019-02-21T20:57:48.072Z,99100.00
2019-02-21T21:02:09.370Z,99105.00
2019-02-21T21:06:30.161Z,99109.00
2019-02-21T21:10:44.169Z,99110.00
2019-02-21T21:14:58.682Z,99113.00
2019-02-21T21:19:13.157Z,99119.00
2019-02-21T21:23:27.786Z,99120.00
2019-02-21T21:27:42.536Z,99123.00
2019-02-21T21:31:57.311Z,99116.00
2019-02-21T21:36:11.917Z,99129.00
2019-02-21T21:40:26.487Z,99130.00
2019-02-21T21:44:41.139Z,99133.00
2019-02-21T21:48:55.756Z,99140.00
2019-02-21T21:53:10.311Z,99147.00
2019-02-21T21:57:24.140Z,99142.00
2019-02-21T22:01:38.670Z,99137.00
2019-02-21T22:05:53.231Z,99141.00
2019-02-21T22:10:07.828Z,99149.00
2019-02-21T22:14:22.430Z,99144.00
2019-02-21T22:18:37.181Z,99147.00
2019-02-21T22:22:38.877Z,99141.00
2019-02-21T22:26:59.695Z,99147.00
2019-02-21T22:31:20.555Z,99143.00
2019-02-21T22:35:41.294Z,99141.00
2019-02-21T22:39:42.312Z,99120.00
2019-02-21T22:44:03.065Z,99120.00
2019-02-21T22:48:24.012Z,99114.00
2019-02-21T22:52:44.875Z,99114.00
2019-02-21T22:57:05.663Z,99120.00
2019-02-21T23:01:27.116Z,99124.00
2019-02-21T23:06:07.919Z,99139.00
2019-02-21T23:10:28.887Z,99132.00
2019-02-21T23:14:49.692Z,99126.00
2019-02-21T23:19:10.584Z,99137.00
2019-02-21T23:23:11.620Z,99145.00
2019-02-21T23:27:32.345Z,99138.00
2019-02-21T23:31:53.224Z,99147.00
2019-02-21T23:36:14.069Z,99139.00
2019-02-21T23:40:14.950Z,99129.00
2019-02-21T23:44:35.855Z,99132.00
2019-02-21T23:48:56.598Z,99131.00
2019-02-21T23:53:17.457Z,99136.00
2019-02-21T23:57:38.193Z,99146.00
